map of ETSL home
Great Circle Mapper logo
ETSL - Airport
Location
City:  Lechfeld, Bavaria, Germany
ICAO:ETSL

Details
Type:Airport (Flugplatz, Airfield)
Use:Military
Latitude:4811'08"N (48.185433)
Longitude:1051'40"E (10.861133)
Elevation:1822 ft (555 m)
Runways:1
Longest:8012 × 98 ft (2442 × 30 m), paved

Time
Time Zone:UTC+1 (DST+2)
Local Time:

Weather
METAR:ETSL 202030Z 32003KT 6000 TSRA BKN010 BKN025CB 14/14 Q1017 GRN

Related Locations
Nearby:
Farthest:CHT: 11972 mi / 19267 km
Waitangi [Tuuta], Chatham Islands, NZ

Find:

   beyond  
but within

Other Information
Maps:
NOTAMs:
Links:
Sources:

  
flag of Germany
flag of Bavaria
  

Airport Diagram

Airport diagram for ETSL

Airport diagram (OBSOLETE) from NGA

Sectional Chart

Flight Planning
at skyvector.com

Satellite Image

Google Maps Satellite View

 

Copyright © 2004-2014 Karl L. Swartz. All rights reserved.
The Great Circle Mapper name and logo are trademarks of the Great Circle Mapper.
All other trademarks mentioned herein belong to their respective owners.
Please see credits for attibutions and further copyright information.

  Follow gcmap on Facebook Follow gcmap on Twitter

hCard Microformat

Geo Microformat